Decoded Metar for CYKY (KINDERSLEY in SK, CANADA) (IATA:YKY) | Meteo·Mobile Aviation Weather
aviador You're here:

CYKY Decoded Metar

KINDERSLEY in SK, CANADA
Report Time2018-10-20 05:00:00
UTC Time2018-10-20 06:06:35
Flight Rules vfr VFR
WindVRB at 08 kt
Visibility9999 m
Phenomena:N/A
Clouds:N/A
Expected CloudBase > 1,600 ft AGL from Temp-Dew spread
CeilingNone
Temp02°C (ISA -8)
Dew Point-2°C (75% RH)
AAT-3.1°C
QNH1026 hPa
Density Alt892 ft
Elevation2,277 ft
Report Wrong Elevation
Raw Report
CYKY 200500Z VRB08KT 15SM SKC 02/M02 A3029 RMK SLP283=

Extra information for CYKY:More info

Metar Taf Metar & Taf Last 4 Metars F.Rules Stats Wind Profile Meteogram Temp Stats Airport Information Weather charts Add Link Nearby VenuesMetar ALERT Operation Metar Decoded Social comments